Flight Track Log - Related Links

Times and Time Zones

All times are in EDT time to prevent confusion due to time zone crossing. See the N465TP flight status page for this flight to view local times or setup timezone preferences in your user account.

Time Position Orientation Groundspeed Altitude Reporting Facility
EDT Latitude Longitude Course Direction KTS MPH feet Rate Location/Type
Fri 12:07:14 PM 44.4169 -109.2464 237° Southwest 146 168 10,400  Level Salt Center
Fri 12:08:16 PM 44.3944 -109.2942 237° Southwest 146 168 11,500 1,161 Climbing Salt Center
Fri 12:09:18 PM 44.3686 -109.3414 233° Southwest 151 174 12,800 1,258 Climbing Salt Center
Fri 12:10:20 PM 44.3383 -109.3864 227° Southwest 156 180 14,100 1,258 Climbing Salt Center
Fri 12:11:22 PM 44.3031 -109.4397 227° Southwest 156 180 15,400 1,113 Climbing Salt Center
Fri 12:12:24 PM 44.2739 -109.4850 228° Southwest 156 180 16,400 1,016 Climbing Salt Center
Fri 12:13:26 PM 44.2464 -109.5278 228° Southwest 156 180 17,500 968 Climbing Salt Center
Fri 12:14:28 PM 44.2125 -109.5769 226° Southwest 156 180 18,400 919 Climbing Salt Center
Fri 12:15:30 PM 44.1836 -109.6222 228° Southwest 161 185 19,400 1,016 Climbing Salt Center
Fri 12:16:32 PM 44.1481 -109.6756 227° Southwest 166 191 20,500 1,016 Climbing Salt Center
Fri 12:17:34 PM 44.1175 -109.7214 227° Southwest 167 192 21,500 1,016 Climbing Salt Center
Fri 12:18:36 PM 44.0825 -109.7747 228° Southwest 167 192 22,600 912 Climbing Salt Center
Fri 12:19:39 PM 44.0536 -109.8194 228° Southwest 165 190 23,400 864 Climbing Salt Center
Fri 12:20:41 PM 44.0172 -109.8756 228° Southwest 173 199 24,400 919 Climbing Salt Center
Fri 12:21:43 PM 43.9856 -109.9239 228° Southwest 176 203 25,300 823 Climbing Salt Center
Fri 12:22:45 PM 43.9539 -109.9719 228° Southwest 176 203 26,100 919 Climbing Salt Center
Fri 12:23:47 PM 43.9167 -110.0272 227° Southwest 176 203 27,200 823 Climbing Salt Center
Fri 12:24:49 PM 43.8853 -110.0761 228° Southwest 177 204 27,800 387 Climbing Salt Center
Fri 12:25:51 PM 43.8428 -110.1389 227° Southwest 197 227 28,000 97 Climbing Salt Center
Fri 12:26:53 PM 43.8042 -110.1975 228° Southwest 211 243 28,000  Level Salt Center
Fri 12:27:55 PM 43.7592 -110.2644 227° Southwest 213 245 28,000  Level Salt Center
Fri 12:28:57 PM 43.7203 -110.3228 227° Southwest 214 246 28,000 -48 Level Salt Center
Fri 12:29:59 PM 43.6742 -110.3894 226° Southwest 216 249 27,900  Descending Salt Center
Fri 12:31:01 PM 43.6353 -110.4461 227° Southwest 214 246 28,000 48 Climbing Salt Center
Fri 12:32:03 PM 43.5903 -110.5133 227° Southwest 213 245 28,000  Level Salt Center
Fri 12:33:05 PM 43.5506 -110.5700 226° Southwest 213 245 28,000  Level Salt Center
Fri 12:34:07 PM 43.5056 -110.6378 228° Southwest 214 246 28,000  Level Salt Center
Fri 12:35:09 PM 43.4667 -110.6950 227° Southwest 214 246 28,000  Level Salt Center
Fri 12:36:11 PM 43.4289 -110.7519 228° Southwest 210 242 28,000  Level Salt Center
Fri 12:37:13 PM 43.3828 -110.8186 226° Southwest 214 246 28,000  Level Salt Center
Fri 12:38:15 PM 43.3450 -110.8742 227° Southwest 209 241 28,000  Level Salt Center
Fri 12:39:17 PM 43.3000 -110.9392 226° Southwest 209 241 28,000  Level Salt Center
Fri 12:40:19 PM 43.2606 -110.9972 227° Southwest 213 245 28,000  Level Salt Center
Fri 12:41:21 PM 43.2147 -111.0636 227° Southwest 214 246 28,000 -48 Level Salt Center
Fri 12:42:23 PM 43.1767 -111.1203 227° Southwest 211 243 27,900 -48 Descending Salt Center
Fri 12:43:25 PM 43.1306 -111.1858 226° Southwest 212 244 27,900 48 Level Salt Center
Fri 12:44:27 PM 43.0919 -111.2422 227° Southwest 212 244 28,000  Climbing Salt Center
Fri 12:45:30 PM 43.0461 -111.3075 226° Southwest 213 245 27,900  Descending Salt Center
Fri 12:46:32 PM 43.0064 -111.3639 226° Southwest 215 247 28,000 48 Climbing Salt Center
Fri 12:47:34 PM 42.9681 -111.4192 227° Southwest 211 243 28,000  Level Salt Center
Fri 12:48:36 PM 42.9219 -111.4864 227° Southwest 215 247 28,000  Level Salt Center
Fri 12:49:38 PM 42.8819 -111.5417 225° Southwest 214 246 28,000  Level Salt Center
Fri 12:50:40 PM 42.8361 -111.6078 227° Southwest 215 247 28,000  Level Salt Center
Fri 12:51:42 PM 42.7964 -111.6636 226° Southwest 213 245 28,000  Level Salt Center
Fri 12:52:44 PM 42.7500 -111.7286 226° Southwest 214 246 28,000  Level Salt Center
Fri 12:53:46 PM 42.7106 -111.7850 226° Southwest 215 247 28,000  Level Salt Center
Fri 12:54:48 PM 42.6617 -111.8528 226° Southwest 217 250 28,000  Level Salt Center
Fri 12:55:50 PM 42.6208 -111.9106 226° Southwest 214 246 28,000  Level Salt Center
Fri 12:56:52 PM 42.5794 -111.9697 226° Southwest 216 249 28,000  Level Salt Center
Fri 12:57:54 PM 42.5375 -112.0283 226° Southwest 217 250 28,000  Level Salt Center
Fri 12:58:56 PM 42.4950 -112.0858 225° Southwest 217 250 28,000  Level Salt Center
Fri 12:59:58 PM 42.4533 -112.1458 227° Southwest 217 250 28,000  Level Salt Center
Fri 01:01:00 PM 42.4028 -112.2172 226° Southwest 219 252 28,000  Level Salt Center
Fri 01:02:02 PM 42.3600 -112.2736 224° Southwest 217 250 28,000  Level Salt Center
Fri 01:03:04 PM 42.3178 -112.3336 226° Southwest 219 252 28,000  Level Salt Center
Fri 01:04:07 PM 42.2747 -112.3922 225° Southwest 221 254 28,000  Level Salt Center
Fri 01:05:09 PM 42.2325 -112.4517 226° Southwest 219 252 28,000  Level Salt Center
Fri 01:06:11 PM 42.1897 -112.5097 225° Southwest 220 253 28,000  Level Salt Center
Fri 01:07:13 PM 42.1389 -112.5808 226° Southwest 219 252 28,000  Level Salt Center
Fri 01:08:15 PM 42.0964 -112.6392 226° Southwest 218 251 28,000  Level Salt Center
Fri 01:09:17 PM 42.0531 -112.6978 225° Southwest 221 254 28,000  Level Salt Center
Fri 01:10:19 PM 42.0094 -112.7561 225° Southwest 221 254 28,000  Level Salt Center
Fri 01:11:21 PM 41.9672 -112.8150 226° Southwest 220 253 28,000  Level Salt Center
Fri 01:12:23 PM 41.9158 -112.8850 225° Southwest 220 253 28,000  Level Salt Center
Fri 01:13:25 PM 41.8736 -112.9444 226° Southwest 220 253 28,000  Level Salt Center
Fri 01:14:27 PM 41.8297 -113.0019 224° Southwest 221 254 28,000  Level Salt Center
Fri 01:15:29 PM 41.7864 -113.0600 225° Southwest 222 255 28,000  Level Salt Center
Fri 01:16:31 PM 41.7431 -113.1181 225° Southwest 221 254 28,000  Level Salt Center
Fri 01:17:33 PM 41.6997 -113.1772 226° Southwest 221 254 28,000  Level Salt Center
Fri 01:18:35 PM 41.6475 -113.2494 226° Southwest 224 258 28,000  Level Salt Center
Fri 01:19:37 PM 41.6028 -113.3064 224° Southwest 223 257 28,000  Level Salt Center
Fri 01:20:39 PM 41.5589 -113.3658 225° Southwest 225 259 28,000  Level Salt Center
Fri 01:21:42 PM 41.5150 -113.4236 225° Southwest 223 257 28,000  Level Salt Center
Fri 01:22:44 PM 41.4711 -113.4828 225° Southwest 224 258 28,000  Level Salt Center
Fri 01:23:46 PM 41.4186 -113.5539 225° Southwest 225 259 28,000  Level Salt Center
Fri 01:24:48 PM 41.3753 -113.6119 225° Southwest 223 257 28,000  Level Salt Center
Fri 01:25:50 PM 41.3300 -113.6697 224° Southwest 225 259 28,000  Level Salt Center
Fri 01:26:52 PM 41.2864 -113.7286 225° Southwest 224 258 28,000  Level Salt Center
Fri 01:27:54 PM 41.2414 -113.7881 225° Southwest 226 260 28,000  Level Salt Center
Fri 01:28:56 PM 41.1956 -113.8467 224° Southwest 228 262 28,000  Level Salt Center
Fri 01:29:58 PM 41.1431 -113.9172 225° Southwest 226 260 28,000  Level Salt Center
Fri 01:31:00 PM 41.0978 -113.9764 225° Southwest 228 262 28,000  Level Salt Center
Fri 01:32:02 PM 41.0533 -114.0356 225° Southwest 227 261 28,000  Level Salt Center
Fri 01:33:04 PM 41.0081 -114.0942 224° Southwest 228 262 28,000  Level Salt Center
Fri 01:34:06 PM 40.9628 -114.1544 225° Southwest 230 265 28,000  Level Salt Center
Fri 01:35:08 PM 40.9167 -114.2139 224° Southwest 231 266 28,000  Level Salt Center
Fri 01:36:10 PM 40.8631 -114.2844 225° Southwest 229 264 28,000  Level Salt Center
Fri 01:37:12 PM 40.8178 -114.3439 225° Southwest 230 265 28,000  Level Salt Center
Fri 01:38:14 PM 40.7733 -114.4028 225° Southwest 228 262 28,000  Level Salt Center
Fri 01:39:16 PM 40.7278 -114.4619 225° Southwest 229 264 28,000  Level Salt Center
Fri 01:40:18 PM 40.6822 -114.5200 224° Southwest 228 262 28,000  Level Salt Center
Fri 01:41:20 PM 40.6372 -114.5794 225° Southwest 230 265 28,000  Level Salt Center
Fri 01:42:22 PM 40.5817 -114.6500 224° Southwest 231 266 28,000  Level Salt Center
Fri 01:43:24 PM 40.5353 -114.7083 224° Southwest 231 266 28,000  Level Salt Center
Fri 01:44:27 PM 40.4894 -114.7664 224° Southwest 229 264 28,000  Level Salt Center
Fri 01:45:29 PM 40.4406 -114.8250 222° Southwest 237 273 28,000  Level Salt Center
Fri 01:46:31 PM 40.3892 -114.8906 224° Southwest 234 269 28,000  Level Salt Center
Fri 01:47:33 PM 40.3433 -114.9428 221° Southwest 229 264 28,000  Level Salt Center
Fri 01:48:35 PM 40.2828 -114.9992 215° Southwest 235 270 28,000  Level Salt Center
Fri 01:49:37 PM 40.2328 -115.0478 217° Southwest 236 272 28,000  Level Salt Center
Fri 01:50:39 PM 40.1836 -115.0969 217° Southwest 233 268 28,000  Level Salt Center
Fri 01:51:41 PM 40.1233 -115.1539 216° Southwest 236 272 28,000  Level Salt Center
Fri 01:52:43 PM 40.0658 -115.2111 217° Southwest 234 269 28,000  Level Salt Center
Fri 01:53:45 PM 40.0147 -115.2600 216° Southwest 236 272 28,000  Level Salt Center
Fri 01:54:47 PM 39.9561 -115.3161 216° Southwest 234 269 28,000  Level Salt Center
Fri 01:55:49 PM 39.9058 -115.3650 217° Southwest 234 269 28,000  Level Salt Center
Fri 01:56:51 PM 39.8544 -115.4156 217° Southwest 238 274 28,000  Level Salt Center
Fri 01:57:53 PM 39.7919 -115.4739 216° Southwest 244 281 28,000  Level Salt Center
Fri 01:58:55 PM 39.7403 -115.5236 217° Southwest 241 277 28,000  Level Salt Center
Fri 01:59:57 PM 39.6786 -115.5814 216° Southwest 243 280 28,000  Level Salt Center
Fri 02:00:59 PM 39.6283 -115.6303 217° Southwest 238 274 28,000  Level Salt Center
Fri 02:02:01 PM 39.5667 -115.6897 217° Southwest 244 281 28,000  Level Salt Center
Fri 02:03:03 PM 39.5150 -115.7397 217° Southwest 243 280 28,000  Level Salt Center
Fri 02:04:05 PM 39.4528 -115.7983 216° Southwest 246 283 28,000  Level Salt Center
Fri 02:05:07 PM 39.4003 -115.8472 216° Southwest 243 280 28,000  Level Salt Center
Fri 02:06:09 PM 39.3392 -115.9053 216° Southwest 243 280 28,000  Level Salt Center
Fri 02:07:11 PM 39.2872 -115.9542 216° Southwest 241 277 28,000  Level Salt Center
Fri 02:08:13 PM 39.2356 -116.0033 216° Southwest 241 277 28,000  Level Salt Center
Fri 02:09:15 PM 39.1742 -116.0617 216° Southwest 244 281 28,000  Level Salt Center
Fri 02:10:17 PM 39.1225 -116.1092 216° Southwest 241 277 28,000  Level Salt Center
Fri 02:11:19 PM 39.0689 -116.1597 216° Southwest 244 281 28,000  Level Salt Center
Fri 02:12:21 PM 39.0025 -116.2211 216° Southwest 244 281 28,000 -145 Level Salt Center
Fri 02:13:23 PM 38.9475 -116.2731 216° Southwest 245 282 27,700 -384 Descending Salt Center
Fri 02:14:26 PM 38.8889 -116.3261 215° Southwest 254 292 27,200 -528 Descending Salt Center
Fri 02:15:28 PM 38.8294 -116.3814 216° Southwest 262 302 26,600 -629 Descending Salt Center
Fri 02:16:30 PM 38.7689 -116.4394 217° Southwest 271 312 25,900 -677 Descending Salt Center
Fri 02:17:32 PM 38.7067 -116.4956 215° Southwest 273 314 25,200 -1,113 Descending Salt Center
Fri 02:18:34 PM 38.6306 -116.5561 212° Southwest 269 310 23,600 -1,500 Descending Salt Center
Fri 02:19:36 PM 38.5622 -116.5906 202° Southwest 265 305 22,100 -1,161 Descending Salt Center
Fri 02:20:38 PM 38.4978 -116.6272 204° Southwest 256 295 21,200 -532 Descending Salt Center
Fri 02:21:40 PM 38.4372 -116.6706 209° Southwest 249 287 21,000 -97 Descending Salt Center
Fri 02:22:42 PM 38.3861 -116.7275 221° Southwest 245 282 21,000 -339 Level Salt Center
Fri 02:23:44 PM 38.3642 -116.8014 249° West 251 289 20,300 -1,548 Descending Salt Center
Fri 02:24:46 PM 38.3753 -116.9061 278° West 249 287 17,800 -2,177 Descending Salt Center
Fri 02:25:48 PM 38.3492 -116.9742 244° Southwest 234 269 15,800 -1,935 Descending Salt Center
Fri 02:28:00 PM 38.2481 -117.0137 215° Southwest  Level Estimated
Fri 02:35:00 PM 38.0602 -117.0868 218° Southwest  Level Estimated
Fri 02:36:00 PM 38.0602 -117.0868 218° Southwest  Level Estimated
Fri 02:37:00 PM 38.0602 -117.0868 218° Southwest  Level Estimated
Fri 02:38:00 PM 38.0602 -117.0868 218° Southwest  Level Estimated
Fri 02:39:00 PM 38.0602 -117.0868 218° Southwest  Level Estimated
Fri 02:40:00 PM 38.0602 -117.0868 218° Southwest  Level Estimated
Fri 02:41:00 PM 38.0602 -117.0868 218° Southwest  Level Estimated
Fri 02:42:00 PM 38.0602 -117.0868 218° Southwest  Level Estimated
Fri 02:43:00 PM 38.0602 -117.0868 218° Southwest  Level Estimated
Fri 02:44:00 PM 38.0602 -117.0868 218° Southwest  Level Estimated
Fri 02:45:00 PM 38.0602 -117.0868 218° Southwest  Level Estimated
Fri 02:46:00 PM 38.0602 -117.0868 218° Southwest  Level Estimated
Fri 02:47:00 PM 38.0602 -117.0868 218° Southwest  Level Estimated

Login

Don't have an account? Register now (free) for customized features, flight alerts, and more!